Great Falls Observed Data For Previous 48 Hours

Caption
Day and Hour Reservoir Elevation (behind dam)* Tailwater Elevation (below dam)* Average Hourly Discharge*
11/11/2018 1 AM CST 794.57 657.13 4,429
11/11/2018 2 AM CST 794.53 657.11 4,402
11/11/2018 3 AM CST 794.51 657.10 4,372
11/11/2018 4 AM CST 794.49 657.08 4,354
11/11/2018 5 AM CST 794.45 657.04 4,321
11/11/2018 6 AM CST 794.42 657.03 4,282
11/11/2018 7 AM CST 794.40 657.00 4,252
11/11/2018 8 AM CST 794.37 656.98 4,218
11/11/2018 9 AM CST 794.33 656.94 4,188
11/11/2018 10 AM CST 794.30 656.92 4,152
11/11/2018 11 AM CST 794.27 656.90 4,124
11/11/2018 12 PM CST 794.24 656.86 4,093
11/11/2018 1 PM CST 794.21 656.84 4,063
11/11/2018 2 PM CST 794.17 656.81 4,025
11/11/2018 3 PM CST 794.15 656.78 4,000
11/11/2018 4 PM CST 794.12 656.76 3,976
11/11/2018 5 PM CST 794.09 656.72 3,945
11/11/2018 6 PM CST 794.07 656.70 3,921
11/11/2018 7 PM CST 794.02 656.68 3,889
11/11/2018 8 PM CST 793.99 656.65 3,849
11/11/2018 9 PM CST 793.96 656.63 3,816
11/11/2018 10 PM CST 793.93 656.59 3,791
11/11/2018 11 PM CST 793.90 656.57 3,761
11/12/2018 12 AM CST 793.87 656.54 3,737
11/12/2018 1 AM CST 793.84 656.51 3,713
11/12/2018 2 AM CST 793.80 656.47 3,684
11/12/2018 3 AM CST 793.78 656.45 3,655
11/12/2018 4 AM CST 793.74 656.42 3,628
11/12/2018 5 AM CST 793.71 656.39 3,599
11/12/2018 6 AM CST 793.67 656.37 3,571
11/12/2018 7 AM CST 793.64 656.34 3,543
11/12/2018 8 AM CST 793.61 656.33 3,516
11/12/2018 9 AM CST 793.60 656.30 3,495
11/12/2018 10 AM CST 793.58 656.28 3,487
11/12/2018 11 AM CST 793.57 656.28 3,473
11/12/2018 12 PM CST 793.56 656.26 3,464
11/12/2018 1 PM CST 793.54 656.26 3,453
11/12/2018 2 PM CST 793.55 656.23 3,448
11/12/2018 3 PM CST 793.55 656.23 3,448
11/12/2018 4 PM CST 793.58 656.28 2,510
11/12/2018 5 PM CST 793.60 656.29 3,503
11/12/2018 6 PM CST 793.69 656.35 3,553
11/12/2018 7 PM CST 793.71 656.38 3,605
11/12/2018 8 PM CST 793.73 656.39 3,622
11/12/2018 9 PM CST 793.82 656.46 3,667
11/12/2018 10 PM CST 793.89 656.54 3,741
11/12/2018 11 PM CST 794.00 656.61 3,822
11/13/2018 12 AM CST 794.15 656.74 3,941
11/13/2018 1 AM CST 794.30 656.89 4,079
11/13/2018 2 AM CST 794.48 657.03 4,230
11/13/2018 3 AM CST 794.66 657.19 4,413
11/13/2018 4 AM CST 794.84 657.35 4,580
11/13/2018 5 AM CST 795.02 657.50 4,767
11/13/2018 6 AM CST 795.21 657.65 4,974
11/13/2018 7 AM CST 795.40 657.82 5,185
11/13/2018 8 AM CST 795.56 657.99 5,377
11/13/2018 9 AM CST 795.75 658.12 5,578

Elevations are in feet above sea level. Discharges are in cubic feet per second and are reported at the end of the hour.